Aviation Digital Data Service (ADDS)

Output produced by METARs form (0610 UTC 22 February 2017)
found at http://aviationweather.gov/adds/metars/
 
KMFD 220533Z 2206/2306 21007KT P6SM OVC080 
     FM220800 20004KT 6SM BR OVC035 
     FM221000 19004KT 3SM BR OVC012 
     TEMPO 2210/2214 1SM BR OVC008 
     FM221600 18010KT 5SM BR OVC020 
     FM222300 18007KT P6SM OVC035 
     FM230200 20010KT 6SM BR OVC020